Bahawalpur Weather



Bahawalpur's Current Weather

Temprature 29.1o clear sky

clear sky

Rain: 0 %

Min Temprature29.1o
Max Temprature29.1o
Humidity45
Wind Speed5.77 m/h
Sun Rise05:16:49
Sun Set19:03:38
Current Time: 24-May-2022 08:00:53
Lat/Lon: 29.4, 71.6833




Bahawalpur's Geo Location



Bahawalpur's Weather Forecast

Time Overall Temp Min Temp Max Temp Humidity Wind Speed Rain
24-May-2022 (Tue)
11:00:00 clear sky 31.410 31.410 36.040 38 5.85 m/h 0 %
14:00:00 clear sky 36.450 36.450 40.130 25 4.85 m/h 0 %
17:00:00 clear sky 40.330 40.330 40.330 12 3.33 m/h 0 %
20:00:00 clear sky 35.920 35.920 35.920 16 3.6 m/h 0 %
23:00:00 clear sky 32.630 32.630 32.630 24 4.56 m/h 0 %
25-May-2022 (Wed)
02:00:00 clear sky 30.410 30.410 30.410 29 4.94 m/h 0 %
05:00:00 clear sky 28.540 28.540 28.540 32 3.8 m/h 0 %
08:00:00 clear sky 33.950 33.950 33.950 24 3.59 m/h 0 %
11:00:00 clear sky 39.410 39.410 39.410 16 3.36 m/h 0 %
14:00:00 clear sky 42.100 42.100 42.100 11 1.49 m/h 0 %
17:00:00 clear sky 42.860 42.860 42.860 9 1.58 m/h 0 %
20:00:00 clear sky 38.600 38.600 38.600 12 1.94 m/h 0 %
23:00:00 clear sky 36.420 36.420 36.420 14 3.07 m/h 0 %
26-May-2022 (Thu)
02:00:00 clear sky 33.660 33.660 33.660 16 3.58 m/h 0 %
05:00:00 clear sky 31.740 31.740 31.740 20 3.7 m/h 0 %
08:00:00 clear sky 35.750 35.750 35.750 29 5.43 m/h 0 %
11:00:00 clear sky 43.340 43.340 43.340 15 5.69 m/h 0 %
14:00:00 clear sky 46.330 46.330 46.330 10 6.23 m/h 0 %
17:00:00 clear sky 46.280 46.280 46.280 9 5.59 m/h 0 %
20:00:00 clear sky 40.970 40.970 40.970 12 4.49 m/h 0 %
23:00:00 clear sky 39.140 39.140 39.140 16 7.58 m/h 0 %
27-May-2022 (Fri)
02:00:00 clear sky 34.330 34.330 34.330 36 8.57 m/h 0 %
05:00:00 clear sky 31.020 31.020 31.020 50 8.04 m/h 0 %
08:00:00 clear sky 33.350 33.350 33.350 45 9.7 m/h 0 %
11:00:00 clear sky 42.080 42.080 42.080 22 7.39 m/h 0 %
14:00:00 clear sky 47.710 47.710 47.710 9 5.15 m/h 0 %
17:00:00 clear sky 47.900 47.900 47.900 7 6.17 m/h 0 %
20:00:00 clear sky 42.890 42.890 42.890 11 7.79 m/h 0 %
23:00:00 clear sky 38.100 38.100 38.100 9 5.1 m/h 0 %
28-May-2022 (Sat)
02:00:00 clear sky 34.130 34.130 34.130 30 7.47 m/h 0 %
05:00:00 clear sky 31.630 31.630 31.630 38 7.77 m/h 0 %
08:00:00 clear sky 37.620 37.620 37.620 17 9.92 m/h 0 %
11:00:00 clear sky 46.440 46.440 46.440 2 9.91 m/h 0 %
14:00:00 clear sky 47.960 47.960 47.960 2 7.9 m/h 0 %
17:00:00 clear sky 47.520 47.520 47.520 3 6.68 m/h 0 %
20:00:00 clear sky 41.430 41.430 41.430 3 7.13 m/h 0 %
23:00:00 clear sky 38.920 38.920 38.920 3 6.85 m/h 0 %
29-May-2022 (Sun)
02:00:00 clear sky 35.790 35.790 35.790 16 6.74 m/h 0 %
05:00:00 clear sky 32.220 32.220 32.220 21 2.6 m/h 0 %
08:00:00 clear sky 37.190 37.190 37.190 19 4.8 m/h 0 %


Bahawalpur's Tourist Spots

Historical Places in Bahawalpur

Famous Cities (61)